Naples, Florida
Current Conditions -  °F | °C
As of 9:53 AM on Monday 24 Nov 2014 (Local Time) from KAPF Reporting Station
Broken Clouds Broken Clouds  
Wind Chill: 81°   Ceiling: 1000
Heat Index: 87°   Visibility: 10mi
Dew Point: 75°   Wind: 10mph
Humidity: 82%   Direction: 170°S
Pressure: 30"   Gusts: NA
Location:  26.14°N, 81.79°W
Report Text: KAPF 241453Z 17009KT 10SM BKN010 27/24 A3000 RMK AO2 SLP158 T02720239 52002
Loading
Personal Weather Stations






























Interactive Weather Map New forecast layout! Learn more

10-Day Weather Forecast

Advertisements
Track Severe Weather on mobile